logo
Search for airport 
image banner adimage banner adimage banner ad
image banner ad

LOWI - Innsbruck

Located in Innsbruck, Austria

ICAO - LOWI, IATA - INN

Data provided by Airmate  

General information

Coordinates: N47°15'37" E11°20'38"
Elevation is 1907 feet MSL.
 
Rated:
View ratings:
[VIEW]
View others Airports in Tyrol

Operational data

Special qualification required
Current time UTC:
Current local time:
Weather
METAR: LOWI 150920Z VRB02KT 9999 FEW050 SCT070 BKN100 16/07 Q1013 NOSIG
TAF: TAF LOWI 150515Z 1506/1606 27003KT 9999 SCT070 TX19/1512Z TN08/1606Z TEMPO 1509/1512 27015G25KT SHRA FEW060CB BKN090 BECMG 1510/1512 09007KT TEMPO 1512/1521 27020G40KT TSRA SCT050CB BKN070 BECMG 1516/1518 27006KT TEMPO 1521/1606 27015G30KT SHRA
View NOTAMs / SUP AIP / TFR affecting this airport [VIEW]
Communications frequencies: [VIEW]

Runways:

RWY identifierQFULength (ft)Width (ft)SurfaceLDA (ft)
0881°6562148ASP
26261°6562148ASP

Airport contact information

Address: Innsbruck Austria

Handlers

Tiroler Flughafenbetriebsgesellschaft M.B.H.

Tiroler Flughafenbetriebsgesellschaft M.B.H.

Other aviation service providers

Flight schools

Fly-West Gmbh

Fly-West Gmbh
info@fly-west.at+43512214600

Tyrol Aviation College

Tyrol Aviation College
tac@taa.at+4351222422

Aviation club (not for profit)

Askö Flugsportzentrum Tirol

Askö Flugsportzentrum Tirol

Flugsportzentrum Tirol

Flugsportzentrum Tirol
office@flugsportzentrum.at+43512932075
+436642363857

Satellite view of LOWI